createdAt,value
2023-11-30T00:01:32.333Z,24.35
2023-11-30T00:03:59.982Z,25.15
2023-11-30T00:06:26.958Z,25.15
2023-11-30T00:08:54.962Z,34.10
2023-11-30T00:11:21.801Z,29.20
2023-11-30T00:13:48.636Z,32.72
2023-11-30T00:16:15.572Z,25.40
2023-11-30T00:18:42.494Z,26.23
2023-11-30T00:21:09.383Z,26.65
2023-11-30T00:23:36.385Z,28.42
2023-11-30T00:26:03.257Z,27.00
2023-11-30T00:28:30.468Z,27.50
2023-11-30T00:30:57.575Z,27.80
2023-11-30T00:33:24.604Z,29.85
2023-11-30T00:35:51.527Z,28.10
2023-11-30T00:38:18.584Z,26.45
2023-11-30T00:40:45.422Z,26.27
2023-11-30T00:43:12.321Z,27.42
2023-11-30T00:45:39.814Z,26.83
2023-11-30T00:48:06.860Z,27.40
2023-11-30T00:50:33.825Z,27.20
2023-11-30T00:53:00.705Z,26.17
2023-11-30T00:55:27.599Z,26.88
2023-11-30T00:57:54.406Z,27.25
2023-11-30T01:00:21.334Z,26.75
2023-11-30T01:02:48.208Z,26.85
2023-11-30T01:05:15.244Z,27.77
2023-11-30T01:07:42.179Z,25.77
2023-11-30T01:10:09.329Z,26.65
2023-11-30T01:12:36.208Z,26.20
2023-11-30T01:15:04.075Z,25.50
2023-11-30T01:17:31.035Z,26.80
2023-11-30T01:19:58.696Z,26.50
2023-11-30T01:22:26.012Z,26.05
2023-11-30T01:24:52.830Z,25.60
2023-11-30T01:27:19.753Z,26.52
2023-11-30T01:29:46.826Z,26.58
2023-11-30T01:32:13.665Z,26.92
2023-11-30T01:34:40.609Z,26.80
2023-11-30T01:37:07.608Z,26.25
2023-11-30T01:39:34.509Z,25.80
2023-11-30T01:42:03.821Z,25.70
2023-11-30T01:44:32.353Z,25.92
2023-11-30T01:46:59.639Z,26.65
2023-11-30T01:49:26.540Z,26.42
2023-11-30T01:51:53.415Z,26.05
2023-11-30T01:54:20.322Z,25.67
2023-11-30T01:56:47.140Z,38.53
2023-11-30T01:59:14.709Z,26.95
2023-11-30T02:01:41.678Z,26.02
2023-11-30T02:04:16.906Z,26.48
2023-11-30T02:06:47.308Z,25.45
2023-11-30T02:09:14.574Z,25.63
2023-11-30T02:11:41.630Z,25.65
2023-11-30T02:14:08.532Z,25.48
2023-11-30T02:16:35.446Z,26.27
2023-11-30T02:19:02.393Z,25.42
2023-11-30T02:21:29.316Z,25.90
2023-11-30T02:23:56.271Z,25.73
2023-11-30T02:26:23.219Z,25.35
2023-11-30T02:28:50.097Z,25.27
2023-11-30T02:31:17.180Z,24.60
2023-11-30T02:33:44.126Z,25.77
2023-11-30T02:36:11.403Z,27.05
2023-11-30T02:38:38.276Z,25.45
2023-11-30T02:41:05.439Z,25.08
2023-11-30T02:43:32.236Z,25.70
2023-11-30T02:45:59.049Z,25.60
2023-11-30T02:48:26.351Z,25.98
2023-11-30T02:50:53.252Z,25.05
2023-11-30T02:53:20.089Z,25.08
2023-11-30T02:55:47.023Z,25.10
2023-11-30T02:58:13.969Z,24.00
2023-11-30T03:00:40.951Z,24.67
2023-11-30T03:03:07.985Z,26.20
2023-11-30T03:05:34.902Z,25.35
2023-11-30T03:08:01.793Z,25.52
2023-11-30T03:10:28.878Z,26.20
2023-11-30T03:12:55.724Z,25.77
2023-11-30T03:15:23.520Z,26.13
2023-11-30T03:17:50.524Z,26.17
2023-11-30T03:20:17.593Z,25.50
2023-11-30T03:22:44.510Z,25.10
2023-11-30T03:25:11.563Z,25.58
2023-11-30T03:27:38.463Z,25.40
2023-11-30T03:30:06.591Z,26.23
2023-11-30T03:32:34.091Z,25.25
2023-11-30T03:35:00.949Z,25.15
2023-11-30T03:37:27.755Z,25.05
2023-11-30T03:39:54.711Z,25.00
2023-11-30T03:42:21.578Z,25.50
2023-11-30T03:44:48.455Z,24.92
2023-11-30T03:47:15.316Z,25.23
2023-11-30T03:49:42.153Z,26.50
2023-11-30T03:52:08.943Z,25.05
2023-11-30T03:54:35.959Z,25.98
2023-11-30T03:57:02.831Z,25.10
2023-11-30T03:59:29.724Z,26.50
2023-11-30T04:01:57.157Z,26.13
2023-11-30T04:04:24.176Z,26.35
2023-11-30T04:06:52.155Z,27.10
2023-11-30T04:09:19.823Z,27.17
2023-11-30T04:11:46.794Z,26.48
2023-11-30T04:14:13.730Z,27.52
2023-11-30T04:16:40.663Z,27.05
2023-11-30T04:19:08.010Z,27.30
2023-11-30T04:21:34.872Z,26.80
2023-11-30T04:24:01.892Z,26.23
2023-11-30T04:26:28.703Z,26.25
2023-11-30T04:28:55.628Z,27.05
2023-11-30T04:31:22.719Z,27.50
2023-11-30T04:33:49.640Z,27.92
2023-11-30T04:36:16.500Z,27.48
2023-11-30T04:38:43.557Z,27.00
2023-11-30T04:41:10.373Z,27.30
2023-11-30T04:43:40.391Z,27.20
2023-11-30T04:46:07.525Z,27.33
2023-11-30T04:48:34.422Z,27.40
2023-11-30T04:51:01.380Z,28.35
2023-11-30T04:53:28.535Z,28.45
2023-11-30T04:55:55.357Z,27.55
2023-11-30T04:58:22.224Z,29.70
2023-11-30T05:00:49.984Z,29.23
2023-11-30T05:03:17.711Z,28.80
2023-11-30T05:05:44.883Z,28.25
2023-11-30T05:08:12.929Z,28.33
2023-11-30T05:10:41.037Z,28.15
2023-11-30T05:13:07.863Z,28.60
2023-11-30T05:15:39.621Z,29.55
2023-11-30T05:18:07.085Z,28.63
2023-11-30T05:20:34.576Z,28.55
2023-11-30T05:23:04.611Z,29.35
2023-11-30T05:25:31.468Z,28.63
2023-11-30T05:27:59.039Z,28.88
2023-11-30T05:30:29.201Z,29.05
2023-11-30T05:32:56.115Z,29.17
2023-11-30T05:35:25.725Z,35.58
2023-11-30T05:37:52.580Z,28.23
2023-11-30T05:40:20.880Z,27.70
2023-11-30T05:42:48.944Z,27.90
2023-11-30T05:45:16.549Z,27.63
2023-11-30T05:47:43.787Z,27.35
2023-11-30T05:50:11.156Z,27.85
2023-11-30T05:52:38.151Z,27.58
2023-11-30T05:55:07.590Z,27.23
2023-11-30T05:57:35.034Z,26.75
2023-11-30T06:00:02.099Z,27.38
2023-11-30T06:02:29.320Z,26.08
2023-11-30T06:04:56.969Z,27.92
2023-11-30T06:07:27.031Z,27.70
2023-11-30T06:09:53.837Z,28.40
2023-11-30T06:12:20.689Z,28.17
2023-11-30T06:14:47.810Z,27.60
2023-11-30T06:17:15.665Z,30.90
2023-11-30T06:19:42.471Z,28.25
2023-11-30T06:22:09.867Z,28.00
2023-11-30T06:24:37.059Z,27.40
2023-11-30T06:27:04.220Z,28.77
2023-11-30T06:29:31.194Z,27.20
2023-11-30T06:32:01.570Z,27.73
2023-11-30T06:34:29.828Z,28.30
2023-11-30T06:36:57.131Z,28.50
2023-11-30T06:39:23.987Z,27.10
2023-11-30T06:41:53.626Z,27.50
2023-11-30T06:44:21.644Z,27.67
2023-11-30T06:46:48.491Z,27.33
2023-11-30T06:49:15.446Z,27.33
2023-11-30T06:51:43.078Z,27.88
2023-11-30T06:54:10.266Z,29.10
2023-11-30T06:56:37.122Z,29.52
2023-11-30T06:59:04.492Z,25.92
2023-11-30T07:01:32.030Z,25.77
2023-11-30T07:03:59.147Z,25.88
2023-11-30T07:06:26.325Z,33.08
2023-11-30T07:08:53.168Z,27.15
2023-11-30T07:11:19.983Z,25.85
2023-11-30T07:13:47.071Z,32.63
2023-11-30T07:16:13.939Z,26.25
2023-11-30T07:18:41.851Z,25.95
2023-11-30T07:21:15.833Z,26.15
2023-11-30T07:23:44.152Z,25.38
2023-11-30T07:26:14.795Z,31.63
2023-11-30T07:28:42.205Z,27.98
2023-11-30T07:31:09.240Z,27.23
2023-11-30T07:33:36.792Z,26.08
2023-11-30T07:36:06.537Z,26.92
2023-11-30T07:38:33.525Z,26.52
2023-11-30T07:41:00.379Z,28.38
2023-11-30T07:43:28.499Z,37.45
2023-11-30T07:45:55.423Z,36.83
2023-11-30T07:48:22.364Z,34.92
2023-11-30T07:50:49.408Z,29.35
2023-11-30T07:53:16.260Z,35.25
2023-11-30T07:55:43.194Z,29.20
2023-11-30T07:58:10.461Z,30.20
2023-11-30T08:00:37.303Z,34.20
2023-11-30T08:03:04.237Z,32.92
2023-11-30T08:05:31.241Z,36.40
2023-11-30T08:07:58.188Z,29.42
2023-11-30T08:10:25.053Z,36.78
2023-11-30T08:12:52.308Z,30.33
2023-11-30T08:15:19.263Z,28.88
2023-11-30T08:17:47.522Z,31.92
2023-11-30T08:20:15.217Z,29.73
2023-11-30T08:22:42.319Z,30.70
2023-11-30T08:25:09.522Z,36.42
2023-11-30T08:27:37.214Z,37.05
2023-11-30T08:30:05.811Z,36.00
2023-11-30T08:32:32.694Z,28.90
2023-11-30T08:34:59.681Z,35.28
2023-11-30T08:37:26.596Z,34.15
2023-11-30T08:39:53.491Z,29.13
2023-11-30T08:42:20.356Z,30.27
2023-11-30T08:44:47.279Z,29.45
2023-11-30T08:47:14.349Z,29.20
2023-11-30T08:49:41.169Z,28.38
2023-11-30T08:52:08.077Z,28.83
2023-11-30T08:54:35.279Z,29.35
2023-11-30T08:57:02.477Z,29.20
2023-11-30T08:59:29.935Z,30.80
2023-11-30T09:01:56.920Z,35.25
2023-11-30T09:04:23.838Z,30.50
2023-11-30T09:06:50.725Z,28.92
2023-11-30T09:09:18.523Z,30.70
2023-11-30T09:11:48.029Z,32.83
2023-11-30T09:14:14.851Z,31.75
2023-11-30T09:16:41.782Z,31.48
2023-11-30T09:19:08.705Z,38.13
2023-11-30T09:21:35.535Z,31.55
2023-11-30T09:24:05.184Z,31.13
2023-11-30T09:31:28.891Z,37.05
2023-11-30T09:33:55.839Z,29.95
2023-11-30T09:36:23.855Z,30.13
2023-11-30T09:38:51.740Z,38.08
2023-11-30T09:41:18.697Z,29.90
2023-11-30T09:43:47.138Z,34.10
2023-11-30T09:46:14.468Z,29.00
2023-11-30T09:48:41.373Z,30.10
2023-11-30T09:51:08.612Z,32.03
2023-11-30T09:53:35.918Z,30.30
2023-11-30T09:56:02.762Z,30.40
2023-11-30T09:58:29.915Z,33.05
2023-11-30T10:00:56.872Z,32.33
2023-11-30T10:03:34.146Z,30.80
2023-11-30T10:06:02.271Z,30.02
2023-11-30T10:08:29.193Z,30.65
2023-11-30T10:10:56.152Z,37.38
2023-11-30T10:13:23.137Z,29.35
2023-11-30T10:15:50.598Z,30.30
2023-11-30T10:18:18.157Z,30.73
2023-11-30T10:20:45.111Z,31.15
2023-11-30T10:23:13.550Z,35.63
2023-11-30T10:25:42.020Z,31.30
2023-11-30T10:28:15.492Z,29.88
2023-11-30T10:30:46.256Z,30.45
2023-11-30T10:33:15.024Z,29.58
2023-11-30T10:35:45.687Z,30.40
2023-11-30T10:38:22.781Z,33.00
2023-11-30T10:40:49.738Z,30.13
2023-11-30T10:43:17.085Z,31.63
2023-11-30T10:45:43.959Z,33.85
2023-11-30T10:48:12.928Z,37.90
2023-11-30T10:50:41.582Z,28.50
2023-11-30T10:53:15.232Z,28.58
2023-11-30T10:55:42.085Z,29.02
2023-11-30T10:58:10.115Z,33.58
2023-11-30T11:00:37.213Z,29.38
2023-11-30T11:03:10.675Z,27.77
2023-11-30T11:05:43.276Z,28.70
2023-11-30T11:08:10.131Z,27.88
2023-11-30T11:10:37.525Z,28.80
2023-11-30T11:13:04.393Z,28.55
2023-11-30T11:15:33.099Z,29.15
2023-11-30T11:18:09.017Z,28.95
2023-11-30T11:20:37.075Z,29.05
2023-11-30T11:23:04.042Z,29.05
2023-11-30T11:25:40.684Z,29.52
2023-11-30T11:28:09.196Z,30.08
2023-11-30T11:30:43.103Z,30.38
2023-11-30T11:33:10.166Z,31.23
2023-11-30T11:35:37.172Z,29.98
2023-11-30T11:38:04.052Z,29.45
2023-11-30T11:40:30.962Z,29.85
2023-11-30T11:42:58.212Z,30.33
2023-11-30T11:45:25.815Z,30.88
2023-11-30T11:47:53.442Z,36.05
2023-11-30T11:50:20.338Z,29.55
2023-11-30T11:52:48.823Z,29.27
2023-11-30T11:55:15.706Z,31.98
2023-11-30T11:57:44.188Z,32.60
2023-11-30T12:00:17.643Z,31.40
2023-11-30T12:02:48.205Z,33.38
2023-11-30T12:05:16.645Z,29.13
2023-11-30T12:08:00.917Z,32.55
2023-11-30T12:10:29.054Z,30.17
2023-11-30T12:13:02.617Z,34.83
2023-11-30T12:15:29.900Z,32.53
2023-11-30T12:17:56.859Z,28.38
2023-11-30T12:20:24.036Z,27.75
2023-11-30T12:22:52.127Z,34.53
2023-11-30T12:25:19.173Z,28.40
2023-11-30T12:27:46.290Z,27.83
2023-11-30T12:30:13.714Z,27.17
2023-11-30T12:32:41.200Z,32.42
2023-11-30T12:35:08.664Z,27.95
2023-11-30T12:37:36.816Z,28.25
2023-11-30T12:40:05.232Z,28.60
2023-11-30T12:42:32.435Z,32.72
2023-11-30T12:44:59.602Z,29.58
2023-11-30T12:47:27.030Z,28.50
2023-11-30T12:49:53.953Z,27.85
2023-11-30T12:52:22.234Z,30.52
2023-11-30T12:54:52.874Z,27.88
2023-11-30T12:57:20.709Z,27.75
2023-11-30T12:59:47.989Z,28.27
2023-11-30T13:02:15.046Z,27.52
2023-11-30T13:04:42.340Z,27.45
2023-11-30T13:07:09.248Z,29.52
2023-11-30T13:09:37.541Z,29.85
2023-11-30T13:12:04.987Z,25.63
2023-11-30T13:14:32.316Z,28.00
2023-11-30T13:16:59.479Z,27.83
2023-11-30T13:19:26.952Z,22.90
2023-11-30T13:21:54.147Z,22.67
2023-11-30T13:24:21.246Z,22.80
2023-11-30T13:26:51.468Z,22.48
2023-11-30T13:29:18.670Z,21.45
2023-11-30T13:31:45.685Z,21.38
2023-11-30T13:34:12.605Z,21.10
2023-11-30T13:36:39.522Z,21.23
2023-11-30T13:39:07.178Z,21.48
2023-11-30T13:41:34.243Z,23.65
2023-11-30T13:44:01.313Z,20.70
2023-11-30T13:46:28.302Z,21.20
2023-11-30T13:48:55.190Z,21.45
2023-11-30T13:51:22.206Z,22.23
2023-11-30T13:53:49.153Z,19.95
2023-11-30T13:56:16.546Z,20.55
2023-11-30T13:58:43.459Z,20.20
2023-11-30T14:01:11.262Z,23.35
2023-11-30T14:03:38.905Z,19.02
2023-11-30T14:06:06.295Z,18.55
2023-11-30T14:08:33.485Z,21.20
2023-11-30T14:11:00.527Z,21.45
2023-11-30T14:13:27.478Z,20.42
2023-11-30T14:15:54.667Z,19.27
2023-11-30T14:18:21.740Z,21.23
2023-11-30T14:20:49.501Z,22.75
2023-11-30T14:23:16.479Z,19.42
2023-11-30T14:25:43.496Z,18.85
2023-11-30T14:28:12.860Z,18.17
2023-11-30T14:30:41.376Z,18.40
2023-11-30T14:33:10.776Z,18.60
2023-11-30T14:35:39.539Z,17.60
2023-11-30T14:38:06.573Z,21.45
2023-11-30T14:40:33.476Z,19.13
2023-11-30T14:43:00.508Z,17.83
2023-11-30T14:45:28.093Z,19.98
2023-11-30T14:47:55.097Z,19.35
2023-11-30T14:50:22.268Z,19.00
2023-11-30T14:52:49.116Z,20.75
2023-11-30T14:55:16.283Z,18.70
2023-11-30T14:57:44.514Z,18.45
2023-11-30T15:00:13.874Z,20.23
2023-11-30T15:02:42.936Z,17.80
2023-11-30T15:05:14.380Z,17.90
2023-11-30T15:07:41.547Z,17.73
2023-11-30T15:10:09.015Z,19.83
2023-11-30T15:12:37.421Z,22.13
2023-11-30T15:15:14.122Z,19.02
2023-11-30T15:17:43.795Z,17.35
2023-11-30T15:20:13.306Z,16.67
2023-11-30T15:22:41.000Z,18.75
2023-11-30T15:25:08.825Z,19.05
2023-11-30T15:27:38.569Z,17.02
2023-11-30T15:30:06.309Z,16.77
2023-11-30T15:32:33.286Z,17.00
2023-11-30T15:35:00.942Z,18.88
2023-11-30T15:37:28.450Z,19.40
2023-11-30T15:39:55.770Z,16.52
2023-11-30T15:42:26.003Z,17.27
2023-11-30T15:44:53.246Z,20.67
2023-11-30T15:47:20.172Z,16.85
2023-11-30T15:49:47.109Z,18.65
2023-11-30T15:52:15.682Z,16.92
2023-11-30T15:54:42.700Z,20.13
2023-11-30T15:57:10.301Z,17.27
2023-11-30T15:59:37.686Z,17.00
2023-11-30T16:02:04.824Z,17.90
2023-11-30T16:04:32.173Z,17.33
2023-11-30T16:06:59.388Z,17.48
2023-11-30T16:09:26.570Z,17.83
2023-11-30T16:11:53.772Z,17.05
2023-11-30T16:14:20.724Z,16.77
2023-11-30T16:16:52.147Z,17.40
2023-11-30T16:19:19.158Z,18.98
2023-11-30T16:21:46.743Z,18.27
2023-11-30T16:24:13.639Z,18.17
2023-11-30T16:26:40.674Z,24.92
2023-11-30T16:29:07.781Z,18.30
2023-11-30T16:31:34.757Z,18.05
2023-11-30T16:34:01.666Z,21.02
2023-11-30T16:36:28.730Z,17.30
2023-11-30T16:38:55.682Z,18.23
2023-11-30T16:41:22.563Z,22.15
2023-11-30T16:43:49.565Z,18.33
2023-11-30T16:46:17.511Z,18.05
2023-11-30T16:48:45.658Z,18.52
2023-11-30T16:51:12.908Z,20.02
2023-11-30T16:53:39.804Z,19.23
2023-11-30T16:56:07.083Z,19.40
2023-11-30T16:58:34.340Z,17.63
2023-11-30T17:01:01.227Z,18.30
2023-11-30T17:03:28.325Z,20.27
2023-11-30T17:05:55.712Z,19.02
2023-11-30T17:08:22.687Z,17.80
2023-11-30T17:10:49.843Z,18.70
2023-11-30T17:13:16.878Z,21.95
2023-11-30T17:15:43.816Z,18.45
2023-11-30T17:18:11.155Z,19.35
2023-11-30T17:20:38.107Z,17.98
2023-11-30T17:23:04.999Z,19.10
2023-11-30T17:25:31.940Z,18.98
2023-11-30T17:27:59.875Z,19.73
2023-11-30T17:30:27.354Z,19.17
2023-11-30T17:32:54.388Z,19.63
2023-11-30T17:35:21.620Z,20.58
2023-11-30T17:37:48.582Z,23.23
2023-11-30T17:40:15.534Z,23.02
2023-11-30T17:42:42.606Z,17.80
2023-11-30T17:45:10.897Z,18.15
2023-11-30T17:47:38.815Z,19.45
2023-11-30T17:50:10.231Z,20.15
2023-11-30T17:52:37.197Z,18.98
2023-11-30T17:55:04.332Z,19.65
2023-11-30T17:57:32.399Z,18.85
2023-11-30T18:00:00.508Z,19.45
2023-11-30T18:02:27.843Z,21.67
2023-11-30T18:04:55.407Z,22.02
2023-11-30T18:07:22.264Z,19.10
2023-11-30T18:09:49.232Z,19.23
2023-11-30T18:12:16.221Z,19.20
2023-11-30T18:14:43.266Z,20.67
2023-11-30T18:17:10.716Z,19.98
2023-11-30T18:19:37.745Z,18.08
2023-11-30T18:22:04.816Z,20.48
2023-11-30T18:24:32.042Z,18.45
2023-11-30T18:26:59.754Z,18.48
2023-11-30T18:29:26.806Z,18.77
2023-11-30T18:31:53.866Z,20.42
2023-11-30T18:34:21.224Z,20.30
2023-11-30T18:36:48.182Z,18.48
2023-11-30T18:39:16.547Z,18.73
2023-11-30T18:41:43.833Z,20.80
2023-11-30T18:44:13.045Z,19.05
2023-11-30T18:46:40.506Z,19.85
2023-11-30T18:49:07.609Z,19.27
2023-11-30T18:51:37.037Z,19.10
2023-11-30T18:54:04.052Z,19.38
2023-11-30T18:56:31.160Z,19.48
2023-11-30T18:59:00.978Z,20.58
2023-11-30T19:01:28.481Z,20.25
2023-11-30T19:03:55.865Z,20.80
2023-11-30T19:06:22.839Z,20.40
2023-11-30T19:08:50.175Z,20.50
2023-11-30T19:11:17.516Z,18.73
2023-11-30T19:13:44.884Z,20.20
2023-11-30T19:16:23.875Z,22.83
2023-11-30T19:18:51.692Z,21.20
2023-11-30T19:21:19.132Z,19.83
2023-11-30T19:23:49.158Z,21.50
2023-11-30T19:26:16.325Z,20.58
2023-11-30T19:28:43.315Z,21.40
2023-11-30T19:31:10.333Z,20.45
2023-11-30T19:33:37.405Z,20.75
2023-11-30T19:36:04.805Z,20.52
2023-11-30T19:38:33.542Z,20.90
2023-11-30T19:41:01.772Z,18.73
2023-11-30T19:43:28.878Z,22.60
2023-11-30T19:45:56.850Z,20.35
2023-11-30T19:48:24.809Z,20.70
2023-11-30T19:50:51.845Z,21.88
2023-11-30T19:53:18.803Z,18.02
2023-11-30T19:55:48.050Z,19.40
2023-11-30T19:58:15.642Z,20.08
2023-11-30T20:00:44.632Z,20.65
2023-11-30T20:03:12.080Z,19.23
2023-11-30T20:05:39.079Z,20.33
2023-11-30T20:08:06.003Z,21.52
2023-11-30T20:10:33.067Z,18.05
2023-11-30T20:13:00.251Z,22.92
2023-11-30T20:15:29.390Z,24.02
2023-11-30T20:17:56.349Z,22.90
2023-11-30T20:20:23.384Z,23.63
2023-11-30T20:22:50.265Z,23.95
2023-11-30T20:25:18.143Z,21.58
2023-11-30T20:27:45.152Z,21.08
2023-11-30T20:30:12.812Z,22.48
2023-11-30T20:32:39.801Z,23.35
2023-11-30T20:35:07.045Z,25.42
2023-11-30T20:37:34.035Z,23.75
2023-11-30T20:40:00.991Z,21.95
2023-11-30T20:42:28.759Z,24.27
2023-11-30T20:44:55.664Z,25.30
2023-11-30T20:47:23.224Z,22.63
2023-11-30T20:49:50.669Z,20.27
2023-11-30T20:52:17.642Z,19.95
2023-11-30T20:54:44.534Z,19.88
2023-11-30T20:57:12.691Z,19.13
2023-11-30T20:59:40.634Z,20.30
2023-11-30T21:02:08.995Z,19.92
2023-11-30T21:04:37.321Z,22.38
2023-11-30T21:07:04.489Z,19.92
2023-11-30T21:09:33.110Z,20.15
2023-11-30T21:12:00.442Z,22.10
2023-11-30T21:14:27.386Z,24.20
2023-11-30T21:16:54.410Z,17.95
2023-11-30T21:19:21.901Z,18.25
2023-11-30T21:21:48.884Z,20.55
2023-11-30T21:24:16.228Z,20.13
2023-11-30T21:26:43.411Z,20.63
2023-11-30T21:29:10.411Z,21.05
2023-11-30T21:31:39.394Z,25.48
2023-11-30T21:34:06.758Z,23.58
2023-11-30T21:36:34.084Z,22.10
2023-11-30T21:39:01.304Z,20.50
2023-11-30T21:41:28.296Z,21.80
2023-11-30T21:43:55.196Z,21.30
2023-11-30T21:46:22.039Z,22.15
2023-11-30T21:48:49.133Z,24.52
2023-11-30T21:51:16.223Z,25.33
2023-11-30T21:53:43.097Z,23.17
2023-11-30T21:56:12.395Z,21.65
2023-11-30T21:58:39.354Z,22.88
2023-11-30T22:01:06.848Z,21.73
2023-11-30T22:03:33.880Z,24.30
2023-11-30T22:06:00.790Z,22.73
2023-11-30T22:08:28.952Z,22.63
2023-11-30T22:10:55.950Z,23.35
2023-11-30T22:13:25.253Z,23.48
2023-11-30T22:15:59.656Z,23.30
2023-11-30T22:18:31.121Z,24.60
2023-11-30T22:20:58.096Z,26.02
2023-11-30T22:23:24.985Z,25.15
2023-11-30T22:25:58.646Z,25.38
2023-11-30T22:28:30.694Z,24.57
2023-11-30T22:30:57.914Z,24.17
2023-11-30T22:33:24.894Z,24.35
2023-11-30T22:35:51.913Z,23.83
2023-11-30T22:38:18.841Z,24.65
2023-11-30T22:40:45.816Z,27.42
2023-11-30T22:43:12.749Z,22.10
2023-11-30T22:45:39.846Z,20.42
2023-11-30T22:48:06.757Z,18.63
2023-11-30T22:50:33.746Z,21.23
2023-11-30T22:53:00.900Z,22.20
2023-11-30T22:55:27.898Z,20.92
2023-11-30T22:57:54.894Z,19.70
2023-11-30T23:00:25.432Z,24.23
2023-11-30T23:02:53.271Z,22.90
2023-11-30T23:05:20.669Z,24.52
2023-11-30T23:07:48.513Z,24.50
2023-11-30T23:10:18.711Z,27.30
2023-11-30T23:12:46.316Z,23.02
2023-11-30T23:15:13.433Z,27.15
2023-11-30T23:17:40.665Z,24.38
2023-11-30T23:20:08.353Z,19.65
2023-11-30T23:22:35.365Z,25.27
2023-11-30T23:25:04.284Z,23.20
2023-11-30T23:27:31.386Z,21.65
2023-11-30T23:29:58.390Z,21.25
2023-11-30T23:32:26.450Z,23.83
2023-11-30T23:34:53.505Z,25.17
2023-11-30T23:37:20.669Z,24.15
2023-11-30T23:39:49.378Z,25.75
2023-11-30T23:42:17.106Z,25.27
2023-11-30T23:47:10.992Z,22.42
2023-11-30T23:49:38.823Z,22.67
2023-11-30T23:52:06.864Z,22.88
2023-11-30T23:54:33.772Z,21.58
2023-11-30T23:57:00.662Z,21.08
2023-11-30T23:59:27.523Z,19.92
